EDDR/SCN METAR and TAF weather

Enter ICAO airport designator
Station Type Date Time Source
EDDR METAR 2020/12/05 05:50 UTC NOAA

EDDR 050550Z 19008KT 9999 FEW004 BKN006 BKN020 03/02 Q0996 BECMG BKN012


Station Type Date Time Source
EDDR Decoded METAR 2020/12/05 05:50 UTC NOAA

Saarbruecken / Ensheim, Germany (EDDR) 49-13N 007-07E 320M
Dec 05, 2020 - 12:50 AM EST / 2020.12.05 0550 UTC
Wind: from the S (190 degrees) at 9 MPH (8 KT):0
Visibility: greater than 7 mile(s):0
Sky conditions: mostly cloudy
Temperature: 37 F (3 C)
Dew Point: 35 F (2 C)
Relative Humidity: 93%
Pressure (altimeter): 29.41 in. Hg (0996 hPa)
ob: EDDR 050550Z 19008KT 9999 FEW004 BKN006 BKN020 03/02 Q0996 BECMG BKN012
cycle: 6

Station Type Date Time Source
EDDR TAF 2020/12/05 06:27 UTC NOAA

TAF EDDR 050500Z 0506/0606 22005KT 9999 BKN015
TEMPO 0506/0510 BKN006
BECMG 0512/0515 09006KT
TEMPO 0602/0606 4000 BR BKN008

Example: see airport list